sensor_id;sensor_type;location;lat;lon;timestamp;P1;durP1;ratioP1;P2;durP2;ratioP2
38879;SDS011;25887;30.194;-97.880;2023-05-07T00:02:11;20.60;;;9.38;;
38879;SDS011;25887;30.194;-97.880;2023-05-07T00:04:37;20.63;;;9.77;;
38879;SDS011;25887;30.194;-97.880;2023-05-07T00:07:04;15.48;;;8.70;;
38879;SDS011;25887;30.194;-97.880;2023-05-07T00:09:30;19.35;;;9.98;;
38879;SDS011;25887;30.194;-97.880;2023-05-07T00:11:57;16.10;;;8.80;;
38879;SDS011;25887;30.194;-97.880;2023-05-07T00:14:23;14.80;;;8.70;;
38879;SDS011;25887;30.194;-97.880;2023-05-07T00:16:49;21.25;;;10.05;;
38879;SDS011;25887;30.194;-97.880;2023-05-07T00:19:15;19.45;;;9.75;;
38879;SDS011;25887;30.194;-97.880;2023-05-07T00:21:42;15.80;;;9.32;;
38879;SDS011;25887;30.194;-97.880;2023-05-07T00:24:08;17.48;;;9.68;;
38879;SDS011;25887;30.194;-97.880;2023-05-07T00:26:34;15.57;;;8.93;;
38879;SDS011;25887;30.194;-97.880;2023-05-07T00:29:02;19.85;;;10.10;;
38879;SDS011;25887;30.194;-97.880;2023-05-07T00:31:28;21.05;;;9.18;;
38879;SDS011;25887;30.194;-97.880;2023-05-07T00:33:54;23.20;;;9.27;;
38879;SDS011;25887;30.194;-97.880;2023-05-07T00:36:20;22.10;;;9.55;;
38879;SDS011;25887;30.194;-97.880;2023-05-07T00:38:46;18.63;;;9.35;;
38879;SDS011;25887;30.194;-97.880;2023-05-07T00:41:12;16.38;;;9.07;;
38879;SDS011;25887;30.194;-97.880;2023-05-07T00:43:39;16.45;;;9.68;;
38879;SDS011;25887;30.194;-97.880;2023-05-07T00:46:05;21.60;;;9.40;;
38879;SDS011;25887;30.194;-97.880;2023-05-07T00:48:32;19.48;;;8.82;;
38879;SDS011;25887;30.194;-97.880;2023-05-07T00:50:58;13.80;;;8.75;;
38879;SDS011;25887;30.194;-97.880;2023-05-07T00:53:24;20.85;;;9.68;;
38879;SDS011;25887;30.194;-97.880;2023-05-07T00:55:51;19.58;;;10.02;;
38879;SDS011;25887;30.194;-97.880;2023-05-07T00:58:18;16.85;;;9.63;;
38879;SDS011;25887;30.194;-97.880;2023-05-07T01:00:45;20.70;;;9.40;;
38879;SDS011;25887;30.194;-97.880;2023-05-07T01:03:11;18.90;;;9.55;;
38879;SDS011;25887;30.194;-97.880;2023-05-07T01:05:39;18.50;;;9.52;;
38879;SDS011;25887;30.194;-97.880;2023-05-07T01:08:06;19.73;;;9.50;;
38879;SDS011;25887;30.194;-97.880;2023-05-07T01:10:32;27.20;;;10.75;;
38879;SDS011;25887;30.194;-97.880;2023-05-07T01:12:59;21.02;;;10.60;;
38879;SDS011;25887;30.194;-97.880;2023-05-07T01:15:27;20.90;;;9.57;;
38879;SDS011;25887;30.194;-97.880;2023-05-07T01:17:53;21.83;;;10.50;;
38879;SDS011;25887;30.194;-97.880;2023-05-07T01:20:21;22.30;;;10.48;;
38879;SDS011;25887;30.194;-97.880;2023-05-07T01:22:48;19.75;;;10.43;;
38879;SDS011;25887;30.194;-97.880;2023-05-07T01:25:15;19.88;;;10.80;;
38879;SDS011;25887;30.194;-97.880;2023-05-07T01:27:41;26.38;;;11.23;;
38879;SDS011;25887;30.194;-97.880;2023-05-07T01:30:08;23.25;;;10.85;;
38879;SDS011;25887;30.194;-97.880;2023-05-07T01:32:40;22.05;;;11.75;;
38879;SDS011;25887;30.194;-97.880;2023-05-07T01:35:11;19.38;;;10.93;;
38879;SDS011;25887;30.194;-97.880;2023-05-07T01:37:39;20.77;;;10.90;;
38879;SDS011;25887;30.194;-97.880;2023-05-07T01:40:06;22.92;;;11.13;;
38879;SDS011;25887;30.194;-97.880;2023-05-07T01:42:33;21.45;;;12.32;;
38879;SDS011;25887;30.194;-97.880;2023-05-07T01:44:59;18.20;;;11.57;;
38879;SDS011;25887;30.194;-97.880;2023-05-07T01:47:26;21.05;;;10.38;;
38879;SDS011;25887;30.194;-97.880;2023-05-07T01:49:52;18.05;;;10.63;;
38879;SDS011;25887;30.194;-97.880;2023-05-07T01:52:19;15.20;;;9.48;;
38879;SDS011;25887;30.194;-97.880;2023-05-07T01:54:50;18.48;;;11.13;;
38879;SDS011;25887;30.194;-97.880;2023-05-07T01:57:16;18.92;;;10.07;;
38879;SDS011;25887;30.194;-97.880;2023-05-07T01:59:42;19.35;;;10.00;;
38879;SDS011;25887;30.194;-97.880;2023-05-07T02:02:09;20.13;;;11.23;;
38879;SDS011;25887;30.194;-97.880;2023-05-07T02:04:35;26.05;;;11.90;;
38879;SDS011;25887;30.194;-97.880;2023-05-07T02:07:01;25.05;;;11.55;;
38879;SDS011;25887;30.194;-97.880;2023-05-07T02:09:28;23.20;;;11.23;;
38879;SDS011;25887;30.194;-97.880;2023-05-07T02:11:54;22.23;;;10.55;;
38879;SDS011;25887;30.194;-97.880;2023-05-07T02:14:20;23.25;;;11.20;;
38879;SDS011;25887;30.194;-97.880;2023-05-07T02:16:46;21.23;;;11.40;;
38879;SDS011;25887;30.194;-97.880;2023-05-07T02:19:12;28.70;;;11.98;;
38879;SDS011;25887;30.194;-97.880;2023-05-07T02:27:26;26.63;;;11.57;;
38879;SDS011;25887;30.194;-97.880;2023-05-07T02:29:52;24.92;;;11.48;;
38879;SDS011;25887;30.194;-97.880;2023-05-07T02:32:18;22.00;;;11.15;;
38879;SDS011;25887;30.194;-97.880;2023-05-07T02:34:46;21.80;;;11.13;;
38879;SDS011;25887;30.194;-97.880;2023-05-07T02:37:15;22.10;;;11.95;;
38879;SDS011;25887;30.194;-97.880;2023-05-07T02:39:41;17.95;;;11.63;;
38879;SDS011;25887;30.194;-97.880;2023-05-07T02:42:07;21.98;;;12.05;;
38879;SDS011;25887;30.194;-97.880;2023-05-07T02:44:34;24.13;;;12.13;;
38879;SDS011;25887;30.194;-97.880;2023-05-07T02:47:00;24.33;;;11.38;;
38879;SDS011;25887;30.194;-97.880;2023-05-07T02:49:27;29.50;;;12.68;;
38879;SDS011;25887;30.194;-97.880;2023-05-07T02:51:53;23.80;;;11.68;;
38879;SDS011;25887;30.194;-97.880;2023-05-07T02:54:19;23.42;;;11.20;;
38879;SDS011;25887;30.194;-97.880;2023-05-07T02:56:45;20.10;;;11.23;;
38879;SDS011;25887;30.194;-97.880;2023-05-07T02:59:11;21.00;;;11.10;;
38879;SDS011;25887;30.194;-97.880;2023-05-07T03:01:37;25.15;;;11.65;;
38879;SDS011;25887;30.194;-97.880;2023-05-07T03:04:03;27.17;;;12.77;;
38879;SDS011;25887;30.194;-97.880;2023-05-07T03:06:30;23.05;;;12.10;;
38879;SDS011;25887;30.194;-97.880;2023-05-07T03:08:56;22.42;;;11.60;;
38879;SDS011;25887;30.194;-97.880;2023-05-07T03:11:22;22.40;;;10.65;;
38879;SDS011;25887;30.194;-97.880;2023-05-07T03:13:48;26.67;;;12.07;;
38879;SDS011;25887;30.194;-97.880;2023-05-07T03:16:15;23.67;;;11.23;;
38879;SDS011;25887;30.194;-97.880;2023-05-07T03:18:41;22.65;;;11.90;;
38879;SDS011;25887;30.194;-97.880;2023-05-07T03:21:07;21.75;;;10.77;;
38879;SDS011;25887;30.194;-97.880;2023-05-07T03:23:34;21.35;;;12.13;;
38879;SDS011;25887;30.194;-97.880;2023-05-07T03:26:00;23.98;;;12.10;;
38879;SDS011;25887;30.194;-97.880;2023-05-07T03:28:26;21.00;;;10.75;;
38879;SDS011;25887;30.194;-97.880;2023-05-07T03:30:52;25.48;;;11.80;;
38879;SDS011;25887;30.194;-97.880;2023-05-07T03:33:19;26.58;;;12.77;;
38879;SDS011;25887;30.194;-97.880;2023-05-07T03:35:45;23.70;;;12.35;;
38879;SDS011;25887;30.194;-97.880;2023-05-07T03:38:11;27.38;;;12.02;;
38879;SDS011;25887;30.194;-97.880;2023-05-07T03:40:37;26.63;;;12.32;;
38879;SDS011;25887;30.194;-97.880;2023-05-07T03:43:04;23.38;;;12.25;;
38879;SDS011;25887;30.194;-97.880;2023-05-07T03:45:30;25.60;;;12.32;;
38879;SDS011;25887;30.194;-97.880;2023-05-07T03:47:56;25.35;;;12.52;;
38879;SDS011;25887;30.194;-97.880;2023-05-07T03:50:22;21.23;;;12.15;;
38879;SDS011;25887;30.194;-97.880;2023-05-07T03:52:48;24.95;;;11.05;;
38879;SDS011;25887;30.194;-97.880;2023-05-07T03:55:14;22.38;;;11.88;;
38879;SDS011;25887;30.194;-97.880;2023-05-07T03:57:40;24.63;;;12.02;;
38879;SDS011;25887;30.194;-97.880;2023-05-07T04:00:07;26.50;;;12.02;;
38879;SDS011;25887;30.194;-97.880;2023-05-07T04:02:34;25.17;;;12.27;;
38879;SDS011;25887;30.194;-97.880;2023-05-07T04:05:00;22.63;;;12.50;;
38879;SDS011;25887;30.194;-97.880;2023-05-07T04:07:26;20.67;;;11.52;;
38879;SDS011;25887;30.194;-97.880;2023-05-07T04:09:52;25.83;;;11.48;;
38879;SDS011;25887;30.194;-97.880;2023-05-07T04:12:18;25.88;;;12.75;;
38879;SDS011;25887;30.194;-97.880;2023-05-07T04:14:45;22.55;;;11.82;;
38879;SDS011;25887;30.194;-97.880;2023-05-07T04:17:11;24.25;;;12.85;;
38879;SDS011;25887;30.194;-97.880;2023-05-07T04:19:37;25.92;;;13.80;;
38879;SDS011;25887;30.194;-97.880;2023-05-07T04:22:03;28.02;;;13.35;;
38879;SDS011;25887;30.194;-97.880;2023-05-07T04:24:33;20.77;;;12.70;;
38879;SDS011;25887;30.194;-97.880;2023-05-07T04:26:59;23.20;;;12.75;;
38879;SDS011;25887;30.194;-97.880;2023-05-07T04:29:25;23.95;;;13.35;;
38879;SDS011;25887;30.194;-97.880;2023-05-07T04:31:52;22.98;;;13.23;;
38879;SDS011;25887;30.194;-97.880;2023-05-07T04:34:20;21.52;;;12.73;;
38879;SDS011;25887;30.194;-97.880;2023-05-07T04:36:47;24.55;;;13.13;;
38879;SDS011;25887;30.194;-97.880;2023-05-07T04:39:13;24.02;;;12.90;;
38879;SDS011;25887;30.194;-97.880;2023-05-07T04:41:40;30.65;;;14.00;;
38879;SDS011;25887;30.194;-97.880;2023-05-07T04:44:06;28.90;;;12.63;;
38879;SDS011;25887;30.194;-97.880;2023-05-07T04:46:34;29.98;;;13.85;;
38879;SDS011;25887;30.194;-97.880;2023-05-07T04:49:00;24.17;;;12.77;;
38879;SDS011;25887;30.194;-97.880;2023-05-07T04:51:27;26.67;;;12.70;;
38879;SDS011;25887;30.194;-97.880;2023-05-07T04:53:53;25.40;;;13.10;;
38879;SDS011;25887;30.194;-97.880;2023-05-07T04:56:22;22.98;;;12.80;;
38879;SDS011;25887;30.194;-97.880;2023-05-07T04:58:48;22.40;;;13.27;;
38879;SDS011;25887;30.194;-97.880;2023-05-07T05:01:14;21.77;;;12.27;;
38879;SDS011;25887;30.194;-97.880;2023-05-07T05:03:41;22.60;;;12.52;;
38879;SDS011;25887;30.194;-97.880;2023-05-07T05:06:07;20.88;;;11.52;;
38879;SDS011;25887;30.194;-97.880;2023-05-07T05:08:33;30.85;;;13.13;;
38879;SDS011;25887;30.194;-97.880;2023-05-07T05:11:00;22.98;;;12.48;;
38879;SDS011;25887;30.194;-97.880;2023-05-07T05:13:27;28.95;;;11.52;;
38879;SDS011;25887;30.194;-97.880;2023-05-07T05:15:54;22.27;;;12.18;;
38879;SDS011;25887;30.194;-97.880;2023-05-07T05:18:21;21.42;;;11.80;;
38879;SDS011;25887;30.194;-97.880;2023-05-07T05:20:47;21.38;;;11.10;;
38879;SDS011;25887;30.194;-97.880;2023-05-07T05:23:13;26.90;;;11.32;;
38879;SDS011;25887;30.194;-97.880;2023-05-07T05:25:39;24.40;;;10.55;;
38879;SDS011;25887;30.194;-97.880;2023-05-07T05:28:05;22.98;;;11.43;;
38879;SDS011;25887;30.194;-97.880;2023-05-07T05:30:32;23.10;;;11.35;;
38879;SDS011;25887;30.194;-97.880;2023-05-07T05:32:58;18.30;;;9.73;;
38879;SDS011;25887;30.194;-97.880;2023-05-07T05:35:25;23.10;;;8.73;;
38879;SDS011;25887;30.194;-97.880;2023-05-07T05:37:51;16.75;;;8.82;;
38879;SDS011;25887;30.194;-97.880;2023-05-07T05:40:17;20.88;;;8.90;;
38879;SDS011;25887;30.194;-97.880;2023-05-07T05:42:43;20.85;;;8.18;;
38879;SDS011;25887;30.194;-97.880;2023-05-07T05:45:10;22.60;;;8.32;;
38879;SDS011;25887;30.194;-97.880;2023-05-07T05:47:36;20.80;;;7.55;;
38879;SDS011;25887;30.194;-97.880;2023-05-07T05:50:05;18.90;;;7.90;;
38879;SDS011;25887;30.194;-97.880;2023-05-07T05:52:32;18.38;;;8.07;;
38879;SDS011;25887;30.194;-97.880;2023-05-07T05:54:58;14.05;;;7.00;;
38879;SDS011;25887;30.194;-97.880;2023-05-07T05:57:26;18.65;;;6.97;;
38879;SDS011;25887;30.194;-97.880;2023-05-07T05:59:53;18.60;;;7.10;;
38879;SDS011;25887;30.194;-97.880;2023-05-07T06:02:20;15.82;;;6.85;;
38879;SDS011;25887;30.194;-97.880;2023-05-07T06:04:46;13.27;;;6.70;;
38879;SDS011;25887;30.194;-97.880;2023-05-07T06:07:12;21.35;;;6.43;;
38879;SDS011;25887;30.194;-97.880;2023-05-07T06:09:38;18.33;;;5.57;;
38879;SDS011;25887;30.194;-97.880;2023-05-07T06:12:04;15.65;;;5.38;;
38879;SDS011;25887;30.194;-97.880;2023-05-07T06:14:31;11.27;;;5.18;;
38879;SDS011;25887;30.194;-97.880;2023-05-07T06:16:57;9.18;;;5.15;;
38879;SDS011;25887;30.194;-97.880;2023-05-07T06:19:23;15.32;;;5.25;;
38879;SDS011;25887;30.194;-97.880;2023-05-07T06:21:51;13.48;;;5.45;;
38879;SDS011;25887;30.194;-97.880;2023-05-07T06:24:18;11.60;;;5.15;;
38879;SDS011;25887;30.194;-97.880;2023-05-07T06:26:44;14.73;;;6.40;;
38879;SDS011;25887;30.194;-97.880;2023-05-07T06:29:10;13.63;;;5.22;;
38879;SDS011;25887;30.194;-97.880;2023-05-07T06:31:36;10.18;;;4.53;;
38879;SDS011;25887;30.194;-97.880;2023-05-07T06:34:02;11.35;;;4.95;;
38879;SDS011;25887;30.194;-97.880;2023-05-07T06:36:29;11.27;;;5.20;;
38879;SDS011;25887;30.194;-97.880;2023-05-07T06:38:55;12.23;;;4.70;;
38879;SDS011;25887;30.194;-97.880;2023-05-07T06:41:21;12.45;;;4.78;;
38879;SDS011;25887;30.194;-97.880;2023-05-07T06:43:47;12.70;;;5.07;;
38879;SDS011;25887;30.194;-97.880;2023-05-07T06:46:13;14.98;;;5.07;;
38879;SDS011;25887;30.194;-97.880;2023-05-07T06:48:41;11.65;;;5.00;;
38879;SDS011;25887;30.194;-97.880;2023-05-07T06:51:08;11.43;;;6.20;;
38879;SDS011;25887;30.194;-97.880;2023-05-07T06:53:34;11.18;;;4.95;;
38879;SDS011;25887;30.194;-97.880;2023-05-07T06:56:01;10.45;;;4.18;;
38879;SDS011;25887;30.194;-97.880;2023-05-07T06:58:27;9.38;;;4.53;;
38879;SDS011;25887;30.194;-97.880;2023-05-07T07:00:53;9.07;;;4.00;;
38879;SDS011;25887;30.194;-97.880;2023-05-07T07:03:19;15.30;;;5.07;;
38879;SDS011;25887;30.194;-97.880;2023-05-07T07:05:46;11.77;;;4.30;;
38879;SDS011;25887;30.194;-97.880;2023-05-07T07:08:12;9.45;;;4.15;;
38879;SDS011;25887;30.194;-97.880;2023-05-07T07:10:38;12.00;;;4.47;;
38879;SDS011;25887;30.194;-97.880;2023-05-07T07:13:04;12.73;;;4.22;;
38879;SDS011;25887;30.194;-97.880;2023-05-07T07:15:30;10.32;;;4.35;;
38879;SDS011;25887;30.194;-97.880;2023-05-07T07:17:57;17.17;;;4.72;;
38879;SDS011;25887;30.194;-97.880;2023-05-07T07:20:23;13.13;;;4.40;;
38879;SDS011;25887;30.194;-97.880;2023-05-07T07:22:49;10.40;;;4.38;;
38879;SDS011;25887;30.194;-97.880;2023-05-07T07:25:15;10.88;;;4.55;;
38879;SDS011;25887;30.194;-97.880;2023-05-07T07:27:41;12.02;;;4.55;;
38879;SDS011;25887;30.194;-97.880;2023-05-07T07:30:08;17.50;;;5.55;;
38879;SDS011;25887;30.194;-97.880;2023-05-07T07:32:34;17.23;;;5.60;;
38879;SDS011;25887;30.194;-97.880;2023-05-07T07:35:00;11.90;;;4.68;;
38879;SDS011;25887;30.194;-97.880;2023-05-07T07:37:27;10.60;;;4.18;;
38879;SDS011;25887;30.194;-97.880;2023-05-07T07:39:54;10.70;;;4.03;;
38879;SDS011;25887;30.194;-97.880;2023-05-07T07:42:20;13.70;;;4.00;;
38879;SDS011;25887;30.194;-97.880;2023-05-07T07:44:47;13.52;;;4.47;;
38879;SDS011;25887;30.194;-97.880;2023-05-07T07:47:13;17.05;;;4.60;;
38879;SDS011;25887;30.194;-97.880;2023-05-07T07:49:40;15.35;;;4.50;;
38879;SDS011;25887;30.194;-97.880;2023-05-07T07:52:06;14.65;;;5.00;;
38879;SDS011;25887;30.194;-97.880;2023-05-07T07:54:32;11.27;;;4.18;;
38879;SDS011;25887;30.194;-97.880;2023-05-07T07:56:59;7.35;;;3.92;;
38879;SDS011;25887;30.194;-97.880;2023-05-07T07:59:26;14.40;;;4.90;;
38879;SDS011;25887;30.194;-97.880;2023-05-07T08:01:54;9.10;;;4.65;;
38879;SDS011;25887;30.194;-97.880;2023-05-07T08:04:22;12.93;;;4.65;;
38879;SDS011;25887;30.194;-97.880;2023-05-07T08:06:48;12.52;;;4.22;;
38879;SDS011;25887;30.194;-97.880;2023-05-07T08:09:14;13.65;;;5.75;;
38879;SDS011;25887;30.194;-97.880;2023-05-07T08:11:41;12.00;;;4.65;;
38879;SDS011;25887;30.194;-97.880;2023-05-07T08:14:07;13.07;;;4.60;;
38879;SDS011;25887;30.194;-97.880;2023-05-07T08:16:33;9.40;;;4.43;;
38879;SDS011;25887;30.194;-97.880;2023-05-07T08:18:59;10.00;;;3.97;;
38879;SDS011;25887;30.194;-97.880;2023-05-07T08:21:26;14.77;;;4.57;;
38879;SDS011;25887;30.194;-97.880;2023-05-07T08:23:52;15.43;;;4.57;;
38879;SDS011;25887;30.194;-97.880;2023-05-07T08:26:18;12.35;;;4.65;;
38879;SDS011;25887;30.194;-97.880;2023-05-07T08:28:45;11.82;;;4.45;;
38879;SDS011;25887;30.194;-97.880;2023-05-07T08:31:11;11.23;;;4.30;;
38879;SDS011;25887;30.194;-97.880;2023-05-07T08:33:37;12.40;;;4.70;;
38879;SDS011;25887;30.194;-97.880;2023-05-07T08:36:04;16.75;;;4.65;;
38879;SDS011;25887;30.194;-97.880;2023-05-07T08:38:30;20.02;;;4.97;;
38879;SDS011;25887;30.194;-97.880;2023-05-07T08:40:57;8.18;;;4.00;;
38879;SDS011;25887;30.194;-97.880;2023-05-07T08:43:23;11.40;;;4.03;;
38879;SDS011;25887;30.194;-97.880;2023-05-07T08:45:56;14.48;;;5.00;;
38879;SDS011;25887;30.194;-97.880;2023-05-07T08:48:30;8.68;;;3.80;;
38879;SDS011;25887;30.194;-97.880;2023-05-07T08:50:58;13.45;;;3.95;;
38879;SDS011;25887;30.194;-97.880;2023-05-07T08:53:24;8.73;;;3.83;;
38879;SDS011;25887;30.194;-97.880;2023-05-07T08:55:51;10.23;;;4.53;;
38879;SDS011;25887;30.194;-97.880;2023-05-07T08:58:18;11.85;;;4.18;;
38879;SDS011;25887;30.194;-97.880;2023-05-07T09:00:44;10.63;;;4.25;;
38879;SDS011;25887;30.194;-97.880;2023-05-07T09:03:12;12.32;;;4.35;;
38879;SDS011;25887;30.194;-97.880;2023-05-07T09:05:39;13.02;;;4.38;;
38879;SDS011;25887;30.194;-97.880;2023-05-07T09:08:06;18.60;;;4.75;;
38879;SDS011;25887;30.194;-97.880;2023-05-07T09:10:33;10.80;;;4.13;;
38879;SDS011;25887;30.194;-97.880;2023-05-07T09:13:00;12.05;;;5.28;;
38879;SDS011;25887;30.194;-97.880;2023-05-07T09:15:26;15.02;;;4.93;;
38879;SDS011;25887;30.194;-97.880;2023-05-07T09:17:54;17.73;;;4.28;;
38879;SDS011;25887;30.194;-97.880;2023-05-07T09:20:26;17.10;;;4.35;;
38879;SDS011;25887;30.194;-97.880;2023-05-07T09:22:52;22.67;;;4.05;;
38879;SDS011;25887;30.194;-97.880;2023-05-07T09:25:31;13.50;;;4.80;;
38879;SDS011;25887;30.194;-97.880;2023-05-07T09:27:58;12.85;;;3.92;;
38879;SDS011;25887;30.194;-97.880;2023-05-07T09:30:32;12.73;;;4.10;;
38879;SDS011;25887;30.194;-97.880;2023-05-07T09:32:59;24.98;;;5.10;;
38879;SDS011;25887;30.194;-97.880;2023-05-07T09:35:27;10.98;;;4.00;;
38879;SDS011;25887;30.194;-97.880;2023-05-07T09:37:54;9.43;;;3.53;;
38879;SDS011;25887;30.194;-97.880;2023-05-07T09:40:22;17.60;;;4.15;;
38879;SDS011;25887;30.194;-97.880;2023-05-07T09:42:53;10.20;;;4.28;;
38879;SDS011;25887;30.194;-97.880;2023-05-07T09:45:21;16.00;;;5.63;;
38879;SDS011;25887;30.194;-97.880;2023-05-07T09:47:57;10.65;;;3.97;;
38879;SDS011;25887;30.194;-97.880;2023-05-07T09:50:27;17.83;;;4.72;;
38879;SDS011;25887;30.194;-97.880;2023-05-07T09:52:55;16.50;;;4.30;;
38879;SDS011;25887;30.194;-97.880;2023-05-07T09:55:24;12.80;;;4.28;;
38879;SDS011;25887;30.194;-97.880;2023-05-07T09:57:52;12.25;;;3.83;;
38879;SDS011;25887;30.194;-97.880;2023-05-07T10:00:19;12.65;;;3.78;;
38879;SDS011;25887;30.194;-97.880;2023-05-07T10:02:50;12.30;;;4.35;;
38879;SDS011;25887;30.194;-97.880;2023-05-07T10:05:23;11.73;;;4.53;;
38879;SDS011;25887;30.194;-97.880;2023-05-07T10:07:50;13.15;;;3.95;;
38879;SDS011;25887;30.194;-97.880;2023-05-07T10:10:18;14.05;;;4.85;;
38879;SDS011;25887;30.194;-97.880;2023-05-07T10:12:44;12.13;;;4.15;;
38879;SDS011;25887;30.194;-97.880;2023-05-07T10:15:11;12.25;;;4.18;;
38879;SDS011;25887;30.194;-97.880;2023-05-07T10:17:40;11.55;;;4.63;;
38879;SDS011;25887;30.194;-97.880;2023-05-07T10:20:07;12.10;;;4.60;;
38879;SDS011;25887;30.194;-97.880;2023-05-07T10:22:37;10.52;;;3.45;;
38879;SDS011;25887;30.194;-97.880;2023-05-07T10:25:30;13.95;;;3.97;;
38879;SDS011;25887;30.194;-97.880;2023-05-07T10:27:55;16.00;;;4.32;;
38879;SDS011;25887;30.194;-97.880;2023-05-07T10:30:33;9.82;;;4.75;;
38879;SDS011;25887;30.194;-97.880;2023-05-07T10:33:21;12.23;;;4.55;;
38879;SDS011;25887;30.194;-97.880;2023-05-07T10:35:51;10.00;;;4.47;;
38879;SDS011;25887;30.194;-97.880;2023-05-07T10:38:26;15.32;;;4.38;;
38879;SDS011;25887;30.194;-97.880;2023-05-07T10:40:53;13.90;;;4.95;;
38879;SDS011;25887;30.194;-97.880;2023-05-07T10:43:20;9.35;;;4.75;;
38879;SDS011;25887;30.194;-97.880;2023-05-07T10:48:35;19.40;;;4.68;;
38879;SDS011;25887;30.194;-97.880;2023-05-07T10:51:31;15.45;;;4.90;;
38879;SDS011;25887;30.194;-97.880;2023-05-07T10:56:37;14.88;;;4.88;;
38879;SDS011;25887;30.194;-97.880;2023-05-07T11:01:50;10.20;;;4.68;;
38879;SDS011;25887;30.194;-97.880;2023-05-07T11:04:20;19.92;;;5.30;;
38879;SDS011;25887;30.194;-97.880;2023-05-07T11:15:09;16.70;;;4.78;;
38879;SDS011;25887;30.194;-97.880;2023-05-07T11:17:53;14.32;;;4.80;;
38879;SDS011;25887;30.194;-97.880;2023-05-07T11:20:19;13.13;;;4.45;;
38879;SDS011;25887;30.194;-97.880;2023-05-07T11:22:46;15.95;;;4.43;;
38879;SDS011;25887;30.194;-97.880;2023-05-07T11:25:19;14.00;;;5.20;;
38879;SDS011;25887;30.194;-97.880;2023-05-07T11:27:46;16.15;;;4.65;;
38879;SDS011;25887;30.194;-97.880;2023-05-07T11:30:19;10.80;;;4.63;;
38879;SDS011;25887;30.194;-97.880;2023-05-07T11:32:47;10.95;;;4.78;;
38879;SDS011;25887;30.194;-97.880;2023-05-07T11:35:19;14.85;;;4.43;;
38879;SDS011;25887;30.194;-97.880;2023-05-07T11:37:50;16.40;;;4.88;;
38879;SDS011;25887;30.194;-97.880;2023-05-07T11:40:25;10.05;;;4.53;;
38879;SDS011;25887;30.194;-97.880;2023-05-07T11:42:51;14.00;;;4.65;;
38879;SDS011;25887;30.194;-97.880;2023-05-07T11:45:26;14.43;;;4.75;;
38879;SDS011;25887;30.194;-97.880;2023-05-07T11:47:52;10.52;;;4.72;;
38879;SDS011;25887;30.194;-97.880;2023-05-07T11:50:18;17.10;;;5.10;;
38879;SDS011;25887;30.194;-97.880;2023-05-07T11:52:51;17.35;;;5.22;;
38879;SDS011;25887;30.194;-97.880;2023-05-07T11:55:18;12.98;;;5.10;;
38879;SDS011;25887;30.194;-97.880;2023-05-07T11:57:44;11.52;;;5.45;;
38879;SDS011;25887;30.194;-97.880;2023-05-07T12:00:11;15.75;;;5.05;;
38879;SDS011;25887;30.194;-97.880;2023-05-07T12:02:38;11.32;;;4.38;;
38879;SDS011;25887;30.194;-97.880;2023-05-07T12:05:04;11.48;;;4.93;;
38879;SDS011;25887;30.194;-97.880;2023-05-07T12:07:30;12.13;;;5.90;;
38879;SDS011;25887;30.194;-97.880;2023-05-07T12:10:03;15.55;;;5.78;;
38879;SDS011;25887;30.194;-97.880;2023-05-07T12:12:30;16.55;;;5.15;;
38879;SDS011;25887;30.194;-97.880;2023-05-07T12:14:56;11.68;;;4.72;;
38879;SDS011;25887;30.194;-97.880;2023-05-07T12:17:23;15.07;;;5.30;;
38879;SDS011;25887;30.194;-97.880;2023-05-07T12:19:49;22.90;;;5.63;;
38879;SDS011;25887;30.194;-97.880;2023-05-07T12:22:16;13.50;;;5.18;;
38879;SDS011;25887;30.194;-97.880;2023-05-07T12:24:44;13.95;;;5.03;;
38879;SDS011;25887;30.194;-97.880;2023-05-07T12:27:15;13.32;;;5.20;;
38879;SDS011;25887;30.194;-97.880;2023-05-07T12:29:49;11.88;;;5.30;;
38879;SDS011;25887;30.194;-97.880;2023-05-07T12:32:16;21.02;;;5.80;;
38879;SDS011;25887;30.194;-97.880;2023-05-07T12:34:44;20.98;;;5.45;;
38879;SDS011;25887;30.194;-97.880;2023-05-07T12:37:10;17.55;;;5.88;;
38879;SDS011;25887;30.194;-97.880;2023-05-07T12:39:44;12.57;;;5.57;;
38879;SDS011;25887;30.194;-97.880;2023-05-07T12:42:19;14.02;;;5.65;;
38879;SDS011;25887;30.194;-97.880;2023-05-07T12:44:51;20.05;;;5.75;;
38879;SDS011;25887;30.194;-97.880;2023-05-07T12:47:17;12.00;;;5.20;;
38879;SDS011;25887;30.194;-97.880;2023-05-07T12:49:44;17.15;;;6.00;;
38879;SDS011;25887;30.194;-97.880;2023-05-07T12:52:11;14.77;;;5.13;;
38879;SDS011;25887;30.194;-97.880;2023-05-07T12:54:38;13.88;;;6.13;;
38879;SDS011;25887;30.194;-97.880;2023-05-07T12:57:05;11.35;;;5.60;;
38879;SDS011;25887;30.194;-97.880;2023-05-07T12:59:34;14.00;;;5.30;;
38879;SDS011;25887;30.194;-97.880;2023-05-07T13:02:07;14.00;;;5.47;;
38879;SDS011;25887;30.194;-97.880;2023-05-07T13:04:34;13.25;;;5.90;;
38879;SDS011;25887;30.194;-97.880;2023-05-07T13:07:01;21.25;;;5.68;;
38879;SDS011;25887;30.194;-97.880;2023-05-07T13:09:27;12.88;;;5.47;;
38879;SDS011;25887;30.194;-97.880;2023-05-07T13:11:57;18.95;;;5.45;;
38879;SDS011;25887;30.194;-97.880;2023-05-07T13:14:26;11.18;;;5.65;;
38879;SDS011;25887;30.194;-97.880;2023-05-07T13:16:53;22.30;;;5.43;;
38879;SDS011;25887;30.194;-97.880;2023-05-07T13:19:19;19.33;;;6.07;;
38879;SDS011;25887;30.194;-97.880;2023-05-07T13:21:45;17.23;;;6.32;;
38879;SDS011;25887;30.194;-97.880;2023-05-07T13:24:11;18.95;;;6.03;;
38879;SDS011;25887;30.194;-97.880;2023-05-07T13:26:37;14.52;;;6.07;;
38879;SDS011;25887;30.194;-97.880;2023-05-07T13:29:03;15.50;;;5.63;;
38879;SDS011;25887;30.194;-97.880;2023-05-07T13:31:30;14.13;;;6.47;;
38879;SDS011;25887;30.194;-97.880;2023-05-07T13:33:56;9.93;;;5.20;;
38879;SDS011;25887;30.194;-97.880;2023-05-07T13:36:22;16.77;;;6.00;;
38879;SDS011;25887;30.194;-97.880;2023-05-07T13:38:49;13.98;;;5.95;;
38879;SDS011;25887;30.194;-97.880;2023-05-07T13:41:16;15.00;;;6.45;;
38879;SDS011;25887;30.194;-97.880;2023-05-07T13:43:43;15.57;;;5.57;;
38879;SDS011;25887;30.194;-97.880;2023-05-07T13:49:31;11.90;;;6.03;;
38879;SDS011;25887;30.194;-97.880;2023-05-07T13:51:57;19.60;;;6.35;;
38879;SDS011;25887;30.194;-97.880;2023-05-07T13:54:23;16.95;;;6.55;;
38879;SDS011;25887;30.194;-97.880;2023-05-07T13:56:49;14.18;;;6.13;;
38879;SDS011;25887;30.194;-97.880;2023-05-07T13:59:15;12.63;;;5.38;;
38879;SDS011;25887;30.194;-97.880;2023-05-07T14:01:42;17.75;;;6.82;;
38879;SDS011;25887;30.194;-97.880;2023-05-07T14:04:08;17.10;;;6.78;;
38879;SDS011;25887;30.194;-97.880;2023-05-07T14:06:35;23.98;;;6.70;;
38879;SDS011;25887;30.194;-97.880;2023-05-07T14:09:01;17.63;;;6.72;;
38879;SDS011;25887;30.194;-97.880;2023-05-07T14:11:27;16.20;;;6.40;;
38879;SDS011;25887;30.194;-97.880;2023-05-07T14:13:53;12.15;;;6.13;;
38879;SDS011;25887;30.194;-97.880;2023-05-07T14:16:19;23.77;;;7.13;;
38879;SDS011;25887;30.194;-97.880;2023-05-07T14:18:46;14.63;;;6.05;;
38879;SDS011;25887;30.194;-97.880;2023-05-07T14:21:12;15.05;;;7.22;;
38879;SDS011;25887;30.194;-97.880;2023-05-07T14:23:39;15.90;;;6.70;;
38879;SDS011;25887;30.194;-97.880;2023-05-07T14:26:05;22.63;;;7.40;;
38879;SDS011;25887;30.194;-97.880;2023-05-07T14:28:31;16.17;;;6.68;;
38879;SDS011;25887;30.194;-97.880;2023-05-07T14:30:57;13.98;;;6.40;;
38879;SDS011;25887;30.194;-97.880;2023-05-07T14:33:23;22.85;;;7.30;;